OWN070 LIRF-EDDF
Flight info
| Callsign | OWN070 |
|---|---|
| Flight time | N/A |
| Altitude | 34000 |
| Route | SOVAN DCT AMTEL DCT BORMI DCT OZE DCT NAXAV DCT UNIMI L12 MOGTI Q163 OLASO/N0486F320 Q163 HAFUN/N0470F240 Q163 ETASA T163 SPESA SPESA5C |
| Aircraft | B742/H-SDFHIRWXY/L |
Departure
| Time | 2026-02-19 10:32 |
|---|---|
| Airport | Rome–Fiumicino Leonardo da Vinci International Airport (LIRF) |
Arrival
| Time | N/A |
|---|---|
| Airport | Frankfurt Main Airport (EDDF) |
| Time | Latitude | Longitude | Altitude | Speed | Heading |
|---|---|---|---|---|---|
| 2026-02-19 10:06 | 41.80439 | 12.27107 | 11 ft | 0 kts | 160° |
| 2026-02-19 10:23 | 41.80452 | 12.27101 | 11 ft | 2 kts | 160° |
| 2026-02-19 10:23 | 41.80466 | 12.27094 | 11 ft | 2 kts | 160° |
| 2026-02-19 10:23 | 41.80480 | 12.27087 | 11 ft | 2 kts | 164° |
| 2026-02-19 10:24 | 41.80495 | 12.27085 | 11 ft | 2 kts | 186° |
| 2026-02-19 10:24 | 41.80523 | 12.27100 | 11 ft | 2 kts | 220° |
| 2026-02-19 10:24 | 41.80533 | 12.27115 | 11 ft | 2 kts | 238° |
| 2026-02-19 10:25 | 41.80537 | 12.27125 | 11 ft | 0 kts | 248° |
| 2026-02-19 10:25 | 41.80538 | 12.27129 | 11 ft | 0 kts | 248° |
| 2026-02-19 10:27 | 41.80535 | 12.27122 | 11 ft | 3 kts | 249° |
| 2026-02-19 10:28 | 41.80537 | 12.27087 | 11 ft | 5 kts | 303° |
| 2026-02-19 10:28 | 41.80638 | 12.27052 | 11 ft | 7 kts | 355° |
| 2026-02-19 10:28 | 41.80687 | 12.27049 | 11 ft | 6 kts | 359° |
| 2026-02-19 10:29 | 41.80731 | 12.27048 | 11 ft | 5 kts | 358° |
| 2026-02-19 10:29 | 41.80769 | 12.27045 | 11 ft | 5 kts | 354° |
| 2026-02-19 10:29 | 41.80801 | 12.27038 | 11 ft | 5 kts | 348° |
| 2026-02-19 10:29 | 41.80843 | 12.27022 | 11 ft | 6 kts | 341° |
| 2026-02-19 10:30 | 41.80880 | 12.27005 | 11 ft | 4 kts | 340° |
| 2026-02-19 10:30 | 41.80921 | 12.26984 | 12 ft | 7 kts | 338° |
| 2026-02-19 10:30 | 41.80944 | 12.26960 | 12 ft | 6 kts | 295° |
| 2026-02-19 10:30 | 41.80947 | 12.26894 | 11 ft | 4 kts | 258° |
| 2026-02-19 10:31 | 41.80938 | 12.26858 | 11 ft | 0 kts | 251° |
| 2026-02-19 10:31 | 41.80860 | 12.26574 | 12 ft | 69 kts | 250° |
| 2026-02-19 10:31 | 41.80615 | 12.25684 | 16 ft | 134 kts | 249° |
| 2026-02-19 10:31 | 41.80248 | 12.24277 | 111 ft | 179 kts | 249° |
| 2026-02-19 10:32 | 41.79865 | 12.22669 | 835 ft | 183 kts | 247° |
| 2026-02-19 10:32 | 41.78604 | 12.19884 | 2529 ft | 179 kts | 206° |
| 2026-02-19 10:32 | 41.77510 | 12.19231 | 3438 ft | 174 kts | 211° |
| 2026-02-19 10:33 | 41.76441 | 12.18395 | 3998 ft | 190 kts | 211° |
| 2026-02-19 10:33 | 41.75225 | 12.17406 | 4358 ft | 219 kts | 212° |
| 2026-02-19 10:33 | 41.73871 | 12.16277 | 4797 ft | 233 kts | 212° |
| 2026-02-19 10:33 | 41.72499 | 12.15121 | 5370 ft | 237 kts | 212° |
| 2026-02-19 10:34 | 41.71084 | 12.13924 | 5977 ft | 242 kts | 212° |
| 2026-02-19 10:34 | 41.69863 | 12.12386 | 6575 ft | 250 kts | 237° |
| 2026-02-19 10:34 | 41.69445 | 12.10144 | 7168 ft | 264 kts | 268° |
| 2026-02-19 10:34 | 41.70025 | 12.07764 | 7760 ft | 283 kts | 298° |
| 2026-02-19 10:35 | 41.71522 | 12.05973 | 8360 ft | 301 kts | 328° |
| 2026-02-19 10:35 | 41.73562 | 12.05198 | 8962 ft | 312 kts | 349° |
| 2026-02-19 10:35 | 41.75735 | 12.05054 | 9588 ft | 317 kts | 357° |
| 2026-02-19 10:35 | 41.77947 | 12.05138 | 10225 ft | 318 kts | 359° |
| 2026-02-19 10:36 | 41.80143 | 12.05275 | 10862 ft | 318 kts | 359° |
| 2026-02-19 10:36 | 41.84570 | 12.05536 | 12009 ft | 321 kts | 358° |
| 2026-02-19 10:36 | 41.86833 | 12.05658 | 12498 ft | 326 kts | 358° |
| 2026-02-19 10:37 | 41.89088 | 12.05781 | 12972 ft | 330 kts | 357° |
| 2026-02-19 10:37 | 41.91416 | 12.05908 | 13467 ft | 334 kts | 357° |
| 2026-02-19 10:37 | 41.93740 | 12.06033 | 13964 ft | 338 kts | 357° |
| 2026-02-19 10:37 | 41.96077 | 12.06117 | 14447 ft | 339 kts | 352° |
| 2026-02-19 10:38 | 41.98446 | 12.05939 | 14940 ft | 340 kts | 349° |
| 2026-02-19 10:38 | 42.00819 | 12.05678 | 15435 ft | 343 kts | 348° |
| 2026-02-19 10:38 | 42.03195 | 12.05421 | 15923 ft | 346 kts | 348° |
| 2026-02-19 10:38 | 42.05615 | 12.05174 | 16397 ft | 349 kts | 348° |
| 2026-02-19 10:39 | 42.08052 | 12.04932 | 16916 ft | 351 kts | 348° |
| 2026-02-19 10:39 | 42.10490 | 12.04694 | 17395 ft | 354 kts | 348° |
| 2026-02-19 10:39 | 42.12927 | 12.04457 | 17887 ft | 355 kts | 348° |
| 2026-02-19 10:39 | 42.15387 | 12.04218 | 18371 ft | 357 kts | 348° |
| 2026-02-19 10:40 | 42.17896 | 12.03970 | 18839 ft | 359 kts | 346° |
| 2026-02-19 10:40 | 42.22820 | 12.02967 | 19685 ft | 361 kts | 341° |
| 2026-02-19 10:40 | 42.25280 | 12.02385 | 20097 ft | 364 kts | 341° |
| 2026-02-19 10:41 | 42.27810 | 12.01801 | 20525 ft | 368 kts | 341° |
| 2026-02-19 10:41 | 42.31094 | 12.01058 | 21066 ft | 372 kts | 341° |
| 2026-02-19 10:41 | 42.36212 | 11.99911 | 21926 ft | 377 kts | 342° |
| 2026-02-19 10:41 | 42.40105 | 11.99036 | 22565 ft | 380 kts | 341° |
| 2026-02-19 10:42 | 42.42722 | 11.98444 | 22992 ft | 382 kts | 341° |
| 2026-02-19 10:42 | 42.45347 | 11.97850 | 23423 ft | 384 kts | 341° |
| 2026-02-19 10:42 | 42.47956 | 11.97261 | 23866 ft | 385 kts | 341° |
| 2026-02-19 10:42 | 42.50624 | 11.96659 | 24316 ft | 387 kts | 341° |
| 2026-02-19 10:43 | 42.53272 | 11.96062 | 24774 ft | 388 kts | 341° |
| 2026-02-19 10:43 | 42.55924 | 11.95463 | 25210 ft | 388 kts | 341° |
| 2026-02-19 10:43 | 42.58594 | 11.94861 | 25652 ft | 388 kts | 341° |
| 2026-02-19 10:43 | 42.61235 | 11.94264 | 26092 ft | 388 kts | 340° |
| 2026-02-19 10:44 | 42.63923 | 11.93654 | 26432 ft | 390 kts | 340° |
| 2026-02-19 10:44 | 42.69336 | 11.92409 | 26977 ft | 398 kts | 340° |
| 2026-02-19 10:44 | 42.72119 | 11.91767 | 27249 ft | 403 kts | 340° |
| 2026-02-19 10:45 | 42.74974 | 11.91114 | 27518 ft | 407 kts | 340° |
| 2026-02-19 10:45 | 42.77834 | 11.90463 | 27778 ft | 411 kts | 340° |
| 2026-02-19 10:45 | 42.80674 | 11.89815 | 28043 ft | 415 kts | 340° |
| 2026-02-19 10:45 | 42.83487 | 11.88964 | 28289 ft | 406 kts | 329° |
| 2026-02-19 10:46 | 42.86050 | 11.87445 | 28562 ft | 398 kts | 321° |
| 2026-02-19 10:46 | 42.88484 | 11.85681 | 28831 ft | 397 kts | 320° |
| 2026-02-19 10:46 | 42.90900 | 11.83859 | 29080 ft | 398 kts | 320° |
| 2026-02-19 10:46 | 42.93335 | 11.82033 | 29339 ft | 401 kts | 319° |
| 2026-02-19 10:47 | 42.95779 | 11.80217 | 29598 ft | 402 kts | 320° |
| 2026-02-19 10:47 | 42.98225 | 11.78416 | 29852 ft | 404 kts | 320° |
| 2026-02-19 10:47 | 43.00720 | 11.76583 | 30116 ft | 407 kts | 320° |
| 2026-02-19 10:47 | 43.03216 | 11.74750 | 30368 ft | 410 kts | 320° |
| 2026-02-19 10:48 | 43.05741 | 11.72898 | 30630 ft | 412 kts | 320° |
| 2026-02-19 10:48 | 43.10845 | 11.69149 | 31127 ft | 417 kts | 320° |
| 2026-02-19 10:48 | 43.13421 | 11.67252 | 31380 ft | 419 kts | 320° |
| 2026-02-19 10:49 | 43.15979 | 11.65365 | 31615 ft | 421 kts | 320° |
| 2026-02-19 10:49 | 43.18568 | 11.63457 | 31853 ft | 421 kts | 320° |
| 2026-02-19 10:49 | 43.21187 | 11.61623 | 32081 ft | 430 kts | 327° |
| 2026-02-19 10:49 | 43.24143 | 11.60436 | 32352 ft | 448 kts | 339° |
| 2026-02-19 10:50 | 43.27248 | 11.59840 | 32580 ft | 456 kts | 344° |
| 2026-02-19 10:50 | 43.30394 | 11.59439 | 32785 ft | 459 kts | 345° |
| 2026-02-19 10:50 | 43.33580 | 11.59057 | 33026 ft | 459 kts | 345° |
| 2026-02-19 10:50 | 43.36772 | 11.58645 | 33255 ft | 460 kts | 344° |
| 2026-02-19 10:51 | 43.39994 | 11.58194 | 33485 ft | 461 kts | 344° |
| 2026-02-19 10:51 | 43.43193 | 11.57725 | 33633 ft | 466 kts | 343° |
| 2026-02-19 10:51 | 43.49667 | 11.56750 | 33606 ft | 472 kts | 344° |
| 2026-02-19 10:52 | 43.59480 | 11.55276 | 33640 ft | 473 kts | 344° |
| 2026-02-19 10:53 | 43.66048 | 11.54285 | 33655 ft | 471 kts | 345° |
| 2026-02-19 10:53 | 43.72552 | 11.53303 | 33627 ft | 469 kts | 344° |
| 2026-02-19 10:54 | 43.79073 | 11.52305 | 33680 ft | 472 kts | 345° |
| 2026-02-19 10:54 | 43.85628 | 11.51306 | 33580 ft | 468 kts | 345° |
| 2026-02-19 10:55 | 43.92117 | 11.50316 | 33690 ft | 473 kts | 345° |
| 2026-02-19 10:55 | 43.98656 | 11.49315 | 33598 ft | 473 kts | 345° |